Autoridad de Aeronautica Civil de Panamá


metar




ESTACIONES DESCRIPCION
MPTO (M) 141900Z 01003KT 7000 RA FEW008 SCT016 BKN090 26/24 Q1013 RWY WET NOSIG RMK ST ALQDS=  
MPBO (M) 141800Z 00000KT 9999 SCT016 BKN090 ///// Q1012 RMK PCPN DSNT NW-NE=  
MPCH (M) 141800Z 06006KT 9999 SCT020 OVC070 ///// Q1013 RMK DSNT PCPN N-E=  
MPSA (M) 141800Z 21004KT 9000 VCSH SCT015TCU BKN070 30/23 Q1010 RMK TCU ALQDS PCPN N/SE-SW=  
MPCE (M) 141800Z 00000KT 9999 SCT012 BKN090 28/// Q1010 RMK DSNT PCPN SW=  
MPPN (M) 141800Z 21006KT(E) 9999 SCT015TCU BKN100 ///// Q//// RMK TCU N-E=  
MPSM (M) 141800Z 17008KT(E) 9999 SCT018 SCT080 28/24 Q1011=  
MPJE FUERA DE SERVICIO  
MPPA (M) 141800Z 21008KT 9000 VCSH SCT016TCU 28/25 Q1011 RMK TCU/PCPN W-N=  
MPMG (M) 141800Z 17007KT 140V200 9999 SCT016TCU SCT090 27/24 Q1012 NOSIG RMK TCU W/NW/NE=  
MPDA (M) 141800Z 22010KT 6000 RA SCT013CB BKN080 25/24 Q1011 RWY WET RMK CB S-W=  
MPVR (M) 141800Z 20004KT(E) 9000 SCT020 OVC090 ///// Q//// RMK CB/PCPN DSNT N=  
MPWN FUERA DE SERVICIO  
MPOA (M) =  
MPMF (M) =  
MPEJ (M) 141800Z 11010KT 9999 SCT015TCU BKN100 27/27 Q1013 RMK TCU NE=  


 

CLIMATICAS

MPTO

13 Octubre 2019

 

PCPN (mm)

T° MAX

T° MIN

VIENTO MAX (KT)

HORA

VIENTO PREDOM (KT)

3.4

27.2

23.8

17009G22KT

2300Z

NE03KT

CLIMATICAS

MPMG

13- Octubre -2019

PCPN (mm)

T° MAX

T° MIN

VIENTO MAX (KT)

HORA

VIENTO PREDOM (KT)-

11.3

28.0

24.6

16013KT

2300Z

VRB

 



Contador: 5067